Overview Statistics Trail Chart Weather Telemetry Raw packets
 

This is the latest recevied weather packets stored in our database for station/object AA7VG. If no packets are shown the sender has not sent any weather packets the latest 10 day(s).

<< 90 91 92 93 94 95 96 >>
Time Temp. Humidity Pressure Rain* Wind** Luminosity Snow
1787946536 20° C 65% 1017.1 hPa 0 mm - - -
1787946233 20° C 65% 1017.2 hPa 0 mm - - -
1787945932 19.44° C 70% 1017.5 hPa 0 mm - - -
1787945627 19.44° C 71% 1017.5 hPa 0 mm - - -
1787945322 18.89° C 70% 1017.4 hPa 0 mm - - -
1787945017 18.33° C 72% 1017.2 hPa 0 mm - - -
1787944714 18.33° C 71% 1017 hPa 0 mm - - -
1787944411 18.33° C 67% 1016.8 hPa 0 mm - - -
1787944105 18.89° C 67% 1017.7 hPa 1.78 mm - - -
1787943801 18.89° C 69% 1018 hPa 1.27 mm - - -
1787943496 18.89° C 69% 1018.3 hPa 1.27 mm - - -
1787943191 20° C 65% 1018.4 hPa 0 mm - - -
1787942890 20.56° C 55% 1018.6 hPa 0 mm - - -
1787942586 20.56° C 50% 1018.6 hPa 0 mm - - -
1787942286 21.11° C 51% 1018.5 hPa 0 mm - - -
1787941981 21.11° C 53% 1018.8 hPa 0 mm - - -
1787941681 21.11° C 55% 1018.8 hPa 0 mm - - -
1787941379 21.11° C 57% 1018.7 hPa 0 mm - - -
1787941074 21.11° C 57% 1018.8 hPa 0 mm - - -
1787940774 21.11° C 57% 1018.6 hPa 0 mm - - -
1787940472 21.11° C 56% 1018.7 hPa 0 mm - - -
1787940167 21.11° C 54% 1018.4 hPa 0 mm - - -
1787939866 21.11° C 53% 1018.5 hPa 0 mm - - -
1787939561 21.67° C 51% 1018.5 hPa 0 mm - - -
1787939255 21.67° C 50% 1018 hPa 0 mm - - -

* Rain latest hour (hover to see other rain measurements)
** Current wind speed in m/s (hover to see current wind gust speed)